Hawk Run, Pennsylvania
Current Conditions -  °F | °C
As of 2:54 PM on Wednesday 28 Jan 2015 (Local Time) from KFIG Reporting Station
Clear Clear  
Wind Chill: 18°   Ceiling: Unl
Heat Index: 27°   Visibility: 10mi
Dew Point:   Wind: 9mph
Humidity: 39%   Direction: 270°W
Pressure: 30.21"   Gusts: NA
Location:  40.94°N, 78.22°W
Report Text: KFIG 281954Z AUTO 27008KT 10SM CLR M03/M15 A3021 RMK AO2 UPE21 SLP257 P0000 T10281150
Loading
Personal Weather Stations






























Interactive Weather Map New forecast layout! Learn more

10-Day Weather Forecast

Advertisements
Track Severe Weather on mobile